N650GY KHPN-KORL
Flight info
| Callsign | N650GY |
|---|---|
| Flight time | N/A |
| Altitude | 43000 |
| Route | DCT WHITE Q409 CRPLR Q85 LPERD TTHOR3 |
| Aircraft | G650/M-SDFGIRWYZ/L |
Departure
| Time | 2026-05-04 23:15 |
|---|---|
| Airport | Westchester County Airport (KHPN) |
Arrival
| Time | N/A |
|---|---|
| Airport | Orlando Executive Airport (KORL) |
| Time | Latitude | Longitude | Altitude | Speed | Heading |
|---|---|---|---|---|---|
| 2026-05-04 22:55 | 41.07475 | -73.70957 | 428 ft | 0 kts | 329° |
| 2026-05-04 23:08 | 41.07476 | -73.70957 | 428 ft | 0 kts | 328° |
| 2026-05-04 23:08 | 41.07502 | -73.70978 | 428 ft | 3 kts | 327° |
| 2026-05-04 23:09 | 41.07510 | -73.70993 | 428 ft | 1 kts | 280° |
| 2026-05-04 23:09 | 41.07507 | -73.71000 | 428 ft | 0 kts | 240° |
| 2026-05-04 23:12 | 41.07505 | -73.71008 | 428 ft | 2 kts | 246° |
| 2026-05-04 23:12 | 41.07506 | -73.71036 | 428 ft | 3 kts | 295° |
| 2026-05-04 23:12 | 41.07522 | -73.71062 | 429 ft | 3 kts | 310° |
| 2026-05-04 23:12 | 41.07536 | -73.71090 | 429 ft | 3 kts | 292° |
| 2026-05-04 23:13 | 41.07543 | -73.71130 | 429 ft | 7 kts | 276° |
| 2026-05-04 23:13 | 41.07545 | -73.71157 | 429 ft | 0 kts | 276° |
| 2026-05-04 23:14 | 41.07546 | -73.71162 | 429 ft | 3 kts | 276° |
| 2026-05-04 23:14 | 41.07548 | -73.71271 | 428 ft | 12 kts | 250° |
| 2026-05-04 23:14 | 41.07498 | -73.71285 | 428 ft | 0 kts | 148° |
| 2026-05-04 23:15 | 41.07409 | -73.71215 | 426 ft | 58 kts | 149° |
| 2026-05-04 23:15 | 41.06724 | -73.70694 | 552 ft | 150 kts | 149° |
| 2026-05-04 23:15 | 41.05993 | -73.70137 | 1510 ft | 100 kts | 150° |
| 2026-05-04 23:15 | 41.05212 | -73.69552 | 1769 ft | 145 kts | 150° |
| 2026-05-04 23:16 | 41.04271 | -73.68856 | 2490 ft | 171 kts | 150° |
| 2026-05-04 23:16 | 41.03204 | -73.68059 | 3485 ft | 195 kts | 150° |
| 2026-05-04 23:16 | 41.01935 | -73.67120 | 4427 ft | 229 kts | 153° |
| 2026-05-04 23:16 | 41.00359 | -73.66801 | 5422 ft | 230 kts | 192° |
| 2026-05-04 23:17 | 40.98994 | -73.67928 | 6434 ft | 247 kts | 232° |
| 2026-05-04 23:17 | 40.98427 | -73.70091 | 7460 ft | 256 kts | 270° |